sensor_id;sensor_type;location;lat;lon;timestamp;P1;durP1;ratioP1;P2;durP2;ratioP2
10811;SDS011;5458;51.496;7.334;2023-04-12T00:00:16;4.90;;;2.58;;
10811;SDS011;5458;51.496;7.334;2023-04-12T00:02:42;6.82;;;2.40;;
10811;SDS011;5458;51.496;7.334;2023-04-12T00:05:09;3.03;;;2.15;;
10811;SDS011;5458;51.496;7.334;2023-04-12T00:07:35;5.70;;;2.00;;
10811;SDS011;5458;51.496;7.334;2023-04-12T00:10:06;4.88;;;2.13;;
10811;SDS011;5458;51.496;7.334;2023-04-12T00:12:33;4.30;;;2.25;;
10811;SDS011;5458;51.496;7.334;2023-04-12T00:14:59;5.25;;;2.10;;
10811;SDS011;5458;51.496;7.334;2023-04-12T00:17:25;5.18;;;1.88;;
10811;SDS011;5458;51.496;7.334;2023-04-12T00:19:51;3.78;;;2.00;;
10811;SDS011;5458;51.496;7.334;2023-04-12T00:22:16;2.95;;;1.98;;
10811;SDS011;5458;51.496;7.334;2023-04-12T00:24:42;6.45;;;1.90;;
10811;SDS011;5458;51.496;7.334;2023-04-12T00:27:08;5.80;;;2.25;;
10811;SDS011;5458;51.496;7.334;2023-04-12T00:29:33;4.60;;;2.20;;
10811;SDS011;5458;51.496;7.334;2023-04-12T00:31:59;6.63;;;2.38;;
10811;SDS011;5458;51.496;7.334;2023-04-12T00:34:28;6.40;;;2.72;;
10811;SDS011;5458;51.496;7.334;2023-04-12T00:36:54;5.45;;;2.00;;
10811;SDS011;5458;51.496;7.334;2023-04-12T00:39:20;3.80;;;1.80;;
10811;SDS011;5458;51.496;7.334;2023-04-12T00:41:46;4.78;;;2.17;;
10811;SDS011;5458;51.496;7.334;2023-04-12T00:44:12;3.50;;;1.65;;
10811;SDS011;5458;51.496;7.334;2023-04-12T00:46:37;3.83;;;1.42;;
10811;SDS011;5458;51.496;7.334;2023-04-12T00:49:03;4.43;;;1.83;;
10811;SDS011;5458;51.496;7.334;2023-04-12T00:51:30;4.93;;;2.28;;
10811;SDS011;5458;51.496;7.334;2023-04-12T00:53:58;5.03;;;2.13;;
10811;SDS011;5458;51.496;7.334;2023-04-12T00:56:25;3.17;;;1.83;;
10811;SDS011;5458;51.496;7.334;2023-04-12T00:58:55;2.92;;;2.58;;
10811;SDS011;5458;51.496;7.334;2023-04-12T01:01:21;4.75;;;1.77;;
10811;SDS011;5458;51.496;7.334;2023-04-12T01:03:48;8.48;;;2.17;;
10811;SDS011;5458;51.496;7.334;2023-04-12T01:09:11;4.25;;;1.67;;
10811;SDS011;5458;51.496;7.334;2023-04-12T01:11:50;5.13;;;2.30;;
10811;SDS011;5458;51.496;7.334;2023-04-12T01:17:28;3.42;;;1.70;;
10811;SDS011;5458;51.496;7.334;2023-04-12T01:22:44;4.43;;;1.63;;
10811;SDS011;5458;51.496;7.334;2023-04-12T01:28:14;2.00;;;1.77;;
10811;SDS011;5458;51.496;7.334;2023-04-12T01:30:46;4.53;;;1.98;;
10811;SDS011;5458;51.496;7.334;2023-04-12T01:33:15;2.67;;;1.33;;
10811;SDS011;5458;51.496;7.334;2023-04-12T01:35:42;3.40;;;1.67;;
10811;SDS011;5458;51.496;7.334;2023-04-12T01:38:08;4.35;;;1.75;;
10811;SDS011;5458;51.496;7.334;2023-04-12T01:40:34;3.47;;;1.65;;
10811;SDS011;5458;51.496;7.334;2023-04-12T01:43:07;2.50;;;1.55;;
10811;SDS011;5458;51.496;7.334;2023-04-12T01:45:37;4.15;;;1.65;;
10811;SDS011;5458;51.496;7.334;2023-04-12T01:48:05;6.88;;;2.03;;
10811;SDS011;5458;51.496;7.334;2023-04-12T01:55:42;2.50;;;1.75;;
10811;SDS011;5458;51.496;7.334;2023-04-12T01:58:13;4.57;;;2.15;;
10811;SDS011;5458;51.496;7.334;2023-04-12T02:00:43;4.80;;;1.90;;
10811;SDS011;5458;51.496;7.334;2023-04-12T02:03:10;5.47;;;2.47;;
10811;SDS011;5458;51.496;7.334;2023-04-12T02:05:36;3.70;;;2.05;;
10811;SDS011;5458;51.496;7.334;2023-04-12T02:08:02;4.78;;;2.55;;
10811;SDS011;5458;51.496;7.334;2023-04-12T02:10:29;4.30;;;1.75;;
10811;SDS011;5458;51.496;7.334;2023-04-12T02:12:57;4.57;;;1.98;;
10811;SDS011;5458;51.496;7.334;2023-04-12T02:15:23;3.90;;;1.98;;
10811;SDS011;5458;51.496;7.334;2023-04-12T02:17:50;4.35;;;1.83;;
10811;SDS011;5458;51.496;7.334;2023-04-12T02:20:17;4.72;;;1.98;;
10811;SDS011;5458;51.496;7.334;2023-04-12T02:22:44;4.20;;;2.22;;
10811;SDS011;5458;51.496;7.334;2023-04-12T02:25:10;4.32;;;2.17;;
10811;SDS011;5458;51.496;7.334;2023-04-12T02:27:35;2.08;;;1.83;;
10811;SDS011;5458;51.496;7.334;2023-04-12T02:30:01;6.53;;;2.20;;
10811;SDS011;5458;51.496;7.334;2023-04-12T02:32:28;5.63;;;2.03;;
10811;SDS011;5458;51.496;7.334;2023-04-12T02:34:54;4.75;;;2.10;;
10811;SDS011;5458;51.496;7.334;2023-04-12T02:37:24;5.05;;;2.03;;
10811;SDS011;5458;51.496;7.334;2023-04-12T02:39:51;6.57;;;2.10;;
10811;SDS011;5458;51.496;7.334;2023-04-12T02:42:20;4.75;;;2.20;;
10811;SDS011;5458;51.496;7.334;2023-04-12T02:44:46;5.63;;;1.98;;
10811;SDS011;5458;51.496;7.334;2023-04-12T02:47:12;4.82;;;2.20;;
10811;SDS011;5458;51.496;7.334;2023-04-12T02:49:38;4.78;;;1.70;;
10811;SDS011;5458;51.496;7.334;2023-04-12T02:52:05;3.20;;;1.85;;
10811;SDS011;5458;51.496;7.334;2023-04-12T02:54:30;5.30;;;2.03;;
10811;SDS011;5458;51.496;7.334;2023-04-12T02:56:56;1.55;;;1.45;;
10811;SDS011;5458;51.496;7.334;2023-04-12T02:59:22;3.17;;;1.90;;
10811;SDS011;5458;51.496;7.334;2023-04-12T03:01:49;2.75;;;1.70;;
10811;SDS011;5458;51.496;7.334;2023-04-12T03:04:15;4.05;;;1.65;;
10811;SDS011;5458;51.496;7.334;2023-04-12T03:06:40;3.15;;;1.98;;
10811;SDS011;5458;51.496;7.334;2023-04-12T03:09:16;4.57;;;2.13;;
10811;SDS011;5458;51.496;7.334;2023-04-12T03:11:42;3.15;;;1.63;;
10811;SDS011;5458;51.496;7.334;2023-04-12T03:14:09;6.13;;;2.35;;
10811;SDS011;5458;51.496;7.334;2023-04-12T03:16:35;3.90;;;1.60;;
10811;SDS011;5458;51.496;7.334;2023-04-12T03:19:00;7.57;;;2.30;;
10811;SDS011;5458;51.496;7.334;2023-04-12T03:21:27;4.47;;;1.77;;
10811;SDS011;5458;51.496;7.334;2023-04-12T03:23:53;2.70;;;2.50;;
10811;SDS011;5458;51.496;7.334;2023-04-12T03:26:18;5.13;;;2.45;;
10811;SDS011;5458;51.496;7.334;2023-04-12T03:28:47;4.70;;;2.03;;
10811;SDS011;5458;51.496;7.334;2023-04-12T03:31:13;5.05;;;1.80;;
10811;SDS011;5458;51.496;7.334;2023-04-12T03:33:39;4.15;;;1.70;;
10811;SDS011;5458;51.496;7.334;2023-04-12T03:36:05;2.80;;;1.88;;
10811;SDS011;5458;51.496;7.334;2023-04-12T03:38:31;2.00;;;1.80;;
10811;SDS011;5458;51.496;7.334;2023-04-12T03:40:57;3.53;;;2.00;;
10811;SDS011;5458;51.496;7.334;2023-04-12T03:43:22;4.18;;;1.58;;
10811;SDS011;5458;51.496;7.334;2023-04-12T03:45:48;4.07;;;1.80;;
10811;SDS011;5458;51.496;7.334;2023-04-12T03:48:13;1.67;;;1.58;;
10811;SDS011;5458;51.496;7.334;2023-04-12T03:50:40;3.90;;;2.00;;
10811;SDS011;5458;51.496;7.334;2023-04-12T03:53:08;2.20;;;1.27;;
10811;SDS011;5458;51.496;7.334;2023-04-12T03:55:35;2.47;;;1.45;;
10811;SDS011;5458;51.496;7.334;2023-04-12T03:58:01;3.58;;;1.80;;
10811;SDS011;5458;51.496;7.334;2023-04-12T04:00:27;2.08;;;1.73;;
10811;SDS011;5458;51.496;7.334;2023-04-12T04:02:53;4.35;;;2.00;;
10811;SDS011;5458;51.496;7.334;2023-04-12T04:05:19;2.22;;;1.67;;
10811;SDS011;5458;51.496;7.334;2023-04-12T04:07:44;2.42;;;1.48;;
10811;SDS011;5458;51.496;7.334;2023-04-12T04:10:10;2.17;;;1.50;;
10811;SDS011;5458;51.496;7.334;2023-04-12T04:12:36;3.53;;;1.92;;
10811;SDS011;5458;51.496;7.334;2023-04-12T04:15:01;5.50;;;1.60;;
10811;SDS011;5458;51.496;7.334;2023-04-12T04:17:27;2.25;;;1.50;;
10811;SDS011;5458;51.496;7.334;2023-04-12T04:19:52;4.50;;;2.00;;
10811;SDS011;5458;51.496;7.334;2023-04-12T04:22:18;2.53;;;1.83;;
10811;SDS011;5458;51.496;7.334;2023-04-12T04:24:45;3.92;;;1.83;;
10811;SDS011;5458;51.496;7.334;2023-04-12T04:27:12;1.60;;;1.50;;
10811;SDS011;5458;51.496;7.334;2023-04-12T04:29:39;3.45;;;1.70;;
10811;SDS011;5458;51.496;7.334;2023-04-12T04:32:09;1.90;;;1.80;;
10811;SDS011;5458;51.496;7.334;2023-04-12T04:34:36;2.15;;;1.63;;
10811;SDS011;5458;51.496;7.334;2023-04-12T04:37:02;3.38;;;1.60;;
10811;SDS011;5458;51.496;7.334;2023-04-12T04:39:27;3.13;;;1.90;;
10811;SDS011;5458;51.496;7.334;2023-04-12T04:41:53;3.20;;;1.60;;
10811;SDS011;5458;51.496;7.334;2023-04-12T04:44:19;1.85;;;1.70;;
10811;SDS011;5458;51.496;7.334;2023-04-12T04:46:45;1.77;;;1.65;;
10811;SDS011;5458;51.496;7.334;2023-04-12T04:49:12;2.70;;;1.60;;
10811;SDS011;5458;51.496;7.334;2023-04-12T04:51:38;5.03;;;1.73;;
10811;SDS011;5458;51.496;7.334;2023-04-12T04:54:03;5.53;;;1.98;;
10811;SDS011;5458;51.496;7.334;2023-04-12T04:56:29;2.47;;;1.95;;
10811;SDS011;5458;51.496;7.334;2023-04-12T04:58:56;2.78;;;1.98;;
10811;SDS011;5458;51.496;7.334;2023-04-12T05:01:22;2.83;;;1.67;;
10811;SDS011;5458;51.496;7.334;2023-04-12T05:03:52;1.80;;;1.50;;
10811;SDS011;5458;51.496;7.334;2023-04-12T05:06:19;2.90;;;1.70;;
10811;SDS011;5458;51.496;7.334;2023-04-12T05:08:45;2.45;;;1.60;;
10811;SDS011;5458;51.496;7.334;2023-04-12T05:11:10;1.90;;;1.70;;
10811;SDS011;5458;51.496;7.334;2023-04-12T05:13:36;2.47;;;1.65;;
10811;SDS011;5458;51.496;7.334;2023-04-12T05:16:04;2.58;;;1.60;;
10811;SDS011;5458;51.496;7.334;2023-04-12T05:18:33;3.28;;;1.95;;
10811;SDS011;5458;51.496;7.334;2023-04-12T05:21:02;2.97;;;1.48;;
10811;SDS011;5458;51.496;7.334;2023-04-12T05:23:31;2.70;;;1.88;;
10811;SDS011;5458;51.496;7.334;2023-04-12T05:25:58;2.15;;;1.77;;
10811;SDS011;5458;51.496;7.334;2023-04-12T05:28:24;1.42;;;1.30;;
10811;SDS011;5458;51.496;7.334;2023-04-12T05:30:50;2.42;;;1.98;;
10811;SDS011;5458;51.496;7.334;2023-04-12T05:33:15;1.70;;;1.60;;
10811;SDS011;5458;51.496;7.334;2023-04-12T05:35:41;2.72;;;1.65;;
10811;SDS011;5458;51.496;7.334;2023-04-12T05:38:06;5.40;;;1.98;;
10811;SDS011;5458;51.496;7.334;2023-04-12T05:40:32;4.50;;;2.08;;
10811;SDS011;5458;51.496;7.334;2023-04-12T05:42:58;1.80;;;1.70;;
10811;SDS011;5458;51.496;7.334;2023-04-12T05:45:24;1.52;;;1.42;;
10811;SDS011;5458;51.496;7.334;2023-04-12T05:47:49;1.80;;;1.58;;
10811;SDS011;5458;51.496;7.334;2023-04-12T05:50:15;2.55;;;1.73;;
10811;SDS011;5458;51.496;7.334;2023-04-12T05:52:41;1.60;;;1.50;;
10811;SDS011;5458;51.496;7.334;2023-04-12T05:55:06;2.60;;;1.60;;
10811;SDS011;5458;51.496;7.334;2023-04-12T05:57:32;3.10;;;1.63;;
10811;SDS011;5458;51.496;7.334;2023-04-12T05:59:58;1.65;;;1.55;;
10811;SDS011;5458;51.496;7.334;2023-04-12T06:02:23;2.22;;;1.60;;
10811;SDS011;5458;51.496;7.334;2023-04-12T06:04:50;2.05;;;1.80;;
10811;SDS011;5458;51.496;7.334;2023-04-12T06:07:16;2.55;;;1.48;;
10811;SDS011;5458;51.496;7.334;2023-04-12T06:09:43;1.58;;;1.48;;
10811;SDS011;5458;51.496;7.334;2023-04-12T06:12:09;2.72;;;1.77;;
10811;SDS011;5458;51.496;7.334;2023-04-12T06:14:34;1.70;;;1.50;;
10811;SDS011;5458;51.496;7.334;2023-04-12T06:17:00;2.03;;;1.80;;
10811;SDS011;5458;51.496;7.334;2023-04-12T06:19:25;2.28;;;1.58;;
10811;SDS011;5458;51.496;7.334;2023-04-12T06:21:51;1.30;;;1.30;;
10811;SDS011;5458;51.496;7.334;2023-04-12T06:24:17;1.42;;;1.35;;
10811;SDS011;5458;51.496;7.334;2023-04-12T06:26:42;2.42;;;1.33;;
10811;SDS011;5458;51.496;7.334;2023-04-12T06:29:10;1.63;;;1.52;;
10811;SDS011;5458;51.496;7.334;2023-04-12T06:31:36;1.40;;;1.30;;
10811;SDS011;5458;51.496;7.334;2023-04-12T06:34:02;2.03;;;1.90;;
10811;SDS011;5458;51.496;7.334;2023-04-12T06:36:28;1.35;;;1.25;;
10811;SDS011;5458;51.496;7.334;2023-04-12T06:38:53;1.17;;;1.10;;
10811;SDS011;5458;51.496;7.334;2023-04-12T06:41:19;3.50;;;1.73;;
10811;SDS011;5458;51.496;7.334;2023-04-12T06:43:45;1.52;;;1.42;;
10811;SDS011;5458;51.496;7.334;2023-04-12T06:46:11;1.23;;;1.20;;
10811;SDS011;5458;51.496;7.334;2023-04-12T06:48:39;1.38;;;1.27;;
10811;SDS011;5458;51.496;7.334;2023-04-12T06:51:05;1.40;;;1.30;;
10811;SDS011;5458;51.496;7.334;2023-04-12T06:53:31;1.50;;;1.40;;
10811;SDS011;5458;51.496;7.334;2023-04-12T06:56:02;2.17;;;1.48;;
10811;SDS011;5458;51.496;7.334;2023-04-12T06:58:28;1.30;;;1.20;;
10811;SDS011;5458;51.496;7.334;2023-04-12T07:01:02;1.00;;;1.00;;
10811;SDS011;5458;51.496;7.334;2023-04-12T07:06:45;2.97;;;1.30;;
10811;SDS011;5458;51.496;7.334;2023-04-12T07:09:11;1.00;;;1.00;;
10811;SDS011;5458;51.496;7.334;2023-04-12T07:11:36;1.50;;;1.40;;
10811;SDS011;5458;51.496;7.334;2023-04-12T07:14:02;1.05;;;1.02;;
10811;SDS011;5458;51.496;7.334;2023-04-12T07:16:28;1.33;;;1.20;;
10811;SDS011;5458;51.496;7.334;2023-04-12T07:18:55;1.05;;;0.95;;
10811;SDS011;5458;51.496;7.334;2023-04-12T07:21:21;1.30;;;1.20;;
10811;SDS011;5458;51.496;7.334;2023-04-12T07:23:47;1.52;;;1.10;;
10811;SDS011;5458;51.496;7.334;2023-04-12T07:26:15;1.10;;;1.10;;
10811;SDS011;5458;51.496;7.334;2023-04-12T07:28:41;1.00;;;1.00;;
10811;SDS011;5458;51.496;7.334;2023-04-12T07:31:06;0.80;;;0.80;;
10811;SDS011;5458;51.496;7.334;2023-04-12T07:33:32;1.25;;;1.10;;
10811;SDS011;5458;51.496;7.334;2023-04-12T07:35:59;1.48;;;1.38;;
10811;SDS011;5458;51.496;7.334;2023-04-12T07:38:25;1.27;;;1.27;;
10811;SDS011;5458;51.496;7.334;2023-04-12T07:40:52;1.60;;;1.30;;
10811;SDS011;5458;51.496;7.334;2023-04-12T07:43:18;1.85;;;1.65;;
10811;SDS011;5458;51.496;7.334;2023-04-12T07:45:44;0.90;;;0.90;;
10811;SDS011;5458;51.496;7.334;2023-04-12T07:48:09;1.48;;;1.38;;
10811;SDS011;5458;51.496;7.334;2023-04-12T07:50:36;1.58;;;0.90;;
10811;SDS011;5458;51.496;7.334;2023-04-12T07:53:18;1.00;;;1.00;;
10811;SDS011;5458;51.496;7.334;2023-04-12T07:55:46;1.42;;;1.10;;
10811;SDS011;5458;51.496;7.334;2023-04-12T07:58:11;1.13;;;1.13;;
10811;SDS011;5458;51.496;7.334;2023-04-12T08:00:37;1.13;;;1.13;;
10811;SDS011;5458;51.496;7.334;2023-04-12T08:03:02;1.30;;;1.20;;
10811;SDS011;5458;51.496;7.334;2023-04-12T08:05:28;0.85;;;0.85;;
10811;SDS011;5458;51.496;7.334;2023-04-12T08:07:53;0.90;;;0.90;;
10811;SDS011;5458;51.496;7.334;2023-04-12T08:10:20;1.02;;;1.00;;
10811;SDS011;5458;51.496;7.334;2023-04-12T08:12:45;1.00;;;0.98;;
10811;SDS011;5458;51.496;7.334;2023-04-12T08:15:11;1.10;;;1.10;;
10811;SDS011;5458;51.496;7.334;2023-04-12T08:17:37;1.17;;;0.90;;
10811;SDS011;5458;51.496;7.334;2023-04-12T08:20:02;1.30;;;0.80;;
10811;SDS011;5458;51.496;7.334;2023-04-12T08:22:29;1.60;;;0.90;;
10811;SDS011;5458;51.496;7.334;2023-04-12T08:24:54;1.05;;;1.05;;
10811;SDS011;5458;51.496;7.334;2023-04-12T08:27:20;0.98;;;0.85;;
10811;SDS011;5458;51.496;7.334;2023-04-12T08:29:45;1.17;;;1.08;;
10811;SDS011;5458;51.496;7.334;2023-04-12T08:32:11;0.90;;;0.90;;
10811;SDS011;5458;51.496;7.334;2023-04-12T08:34:37;1.23;;;1.13;;
10811;SDS011;5458;51.496;7.334;2023-04-12T08:37:03;2.30;;;1.33;;
10811;SDS011;5458;51.496;7.334;2023-04-12T08:39:30;1.38;;;1.27;;
10811;SDS011;5458;51.496;7.334;2023-04-12T08:41:56;1.50;;;1.35;;
10811;SDS011;5458;51.496;7.334;2023-04-12T08:44:32;1.65;;;1.20;;
10811;SDS011;5458;51.496;7.334;2023-04-12T08:47:01;1.95;;;1.13;;
10811;SDS011;5458;51.496;7.334;2023-04-12T08:49:27;1.30;;;1.15;;
10811;SDS011;5458;51.496;7.334;2023-04-12T08:51:52;2.17;;;1.00;;
10811;SDS011;5458;51.496;7.334;2023-04-12T08:54:18;1.92;;;0.93;;
10811;SDS011;5458;51.496;7.334;2023-04-12T08:56:44;2.10;;;0.88;;
10811;SDS011;5458;51.496;7.334;2023-04-12T08:59:11;1.10;;;1.10;;
10811;SDS011;5458;51.496;7.334;2023-04-12T09:01:40;1.45;;;0.80;;
10811;SDS011;5458;51.496;7.334;2023-04-12T09:04:05;1.20;;;0.90;;
10811;SDS011;5458;51.496;7.334;2023-04-12T09:06:31;1.10;;;1.00;;
10811;SDS011;5458;51.496;7.334;2023-04-12T09:08:57;1.20;;;1.20;;
10811;SDS011;5458;51.496;7.334;2023-04-12T09:11:27;1.08;;;0.88;;
10811;SDS011;5458;51.496;7.334;2023-04-12T09:13:53;1.52;;;1.00;;
10811;SDS011;5458;51.496;7.334;2023-04-12T09:16:36;0.82;;;0.82;;
10811;SDS011;5458;51.496;7.334;2023-04-12T09:19:03;1.15;;;1.05;;
10811;SDS011;5458;51.496;7.334;2023-04-12T09:21:30;1.38;;;0.85;;
10811;SDS011;5458;51.496;7.334;2023-04-12T09:24:03;1.77;;;1.13;;
10811;SDS011;5458;51.496;7.334;2023-04-12T09:26:33;1.35;;;1.20;;
10811;SDS011;5458;51.496;7.334;2023-04-12T09:29:02;1.25;;;1.15;;
10811;SDS011;5458;51.496;7.334;2023-04-12T09:31:28;1.00;;;1.00;;
10811;SDS011;5458;51.496;7.334;2023-04-12T09:34:06;0.90;;;0.90;;
10811;SDS011;5458;51.496;7.334;2023-04-12T09:36:36;0.80;;;0.80;;
10811;SDS011;5458;51.496;7.334;2023-04-12T09:39:03;1.80;;;0.90;;
10811;SDS011;5458;51.496;7.334;2023-04-12T09:41:29;0.90;;;0.90;;
10811;SDS011;5458;51.496;7.334;2023-04-12T09:43:58;0.85;;;0.85;;
10811;SDS011;5458;51.496;7.334;2023-04-12T09:46:24;1.15;;;1.15;;
10811;SDS011;5458;51.496;7.334;2023-04-12T09:48:51;0.68;;;0.68;;
10811;SDS011;5458;51.496;7.334;2023-04-12T09:51:25;0.90;;;0.90;;
10811;SDS011;5458;51.496;7.334;2023-04-12T09:54:04;0.85;;;0.85;;
10811;SDS011;5458;51.496;7.334;2023-04-12T09:56:33;0.70;;;0.70;;
10811;SDS011;5458;51.496;7.334;2023-04-12T09:59:01;1.05;;;1.00;;
10811;SDS011;5458;51.496;7.334;2023-04-12T10:01:29;1.23;;;0.80;;
10811;SDS011;5458;51.496;7.334;2023-04-12T10:04:04;1.48;;;0.85;;
10811;SDS011;5458;51.496;7.334;2023-04-12T10:06:31;1.08;;;0.90;;
10811;SDS011;5458;51.496;7.334;2023-04-12T10:08:58;0.82;;;0.80;;
10811;SDS011;5458;51.496;7.334;2023-04-12T10:11:26;1.42;;;1.02;;
10811;SDS011;5458;51.496;7.334;2023-04-12T10:13:53;2.28;;;1.10;;
10811;SDS011;5458;51.496;7.334;2023-04-12T10:16:21;1.10;;;1.10;;
10811;SDS011;5458;51.496;7.334;2023-04-12T10:18:46;1.10;;;1.00;;
10811;SDS011;5458;51.496;7.334;2023-04-12T10:21:14;2.45;;;1.55;;
10811;SDS011;5458;51.496;7.334;2023-04-12T10:23:42;1.65;;;1.08;;
10811;SDS011;5458;51.496;7.334;2023-04-12T10:26:09;1.10;;;0.80;;
10811;SDS011;5458;51.496;7.334;2023-04-12T10:28:35;1.33;;;1.00;;
10811;SDS011;5458;51.496;7.334;2023-04-12T10:31:13;0.80;;;0.80;;
10811;SDS011;5458;51.496;7.334;2023-04-12T10:33:56;0.80;;;0.80;;
10811;SDS011;5458;51.496;7.334;2023-04-12T10:39:17;0.90;;;0.90;;
10811;SDS011;5458;51.496;7.334;2023-04-12T10:42:43;0.70;;;0.70;;
10811;SDS011;5458;51.496;7.334;2023-04-12T10:44:49;0.93;;;0.85;;
10811;SDS011;5458;51.496;7.334;2023-04-12T10:47:16;0.88;;;0.88;;
10811;SDS011;5458;51.496;7.334;2023-04-12T10:55:37;0.90;;;0.90;;
10811;SDS011;5458;51.496;7.334;2023-04-12T10:58:03;0.98;;;0.80;;
10811;SDS011;5458;51.496;7.334;2023-04-12T11:03:22;0.88;;;0.88;;
10811;SDS011;5458;51.496;7.334;2023-04-12T11:06:10;1.60;;;1.10;;
10811;SDS011;5458;51.496;7.334;2023-04-12T11:08:37;1.15;;;1.10;;
10811;SDS011;5458;51.496;7.334;2023-04-12T11:11:16;1.17;;;1.05;;
10811;SDS011;5458;51.496;7.334;2023-04-12T11:13:43;1.27;;;1.17;;
10811;SDS011;5458;51.496;7.334;2023-04-12T11:16:10;1.33;;;1.27;;
10811;SDS011;5458;51.496;7.334;2023-04-12T11:18:37;1.83;;;1.73;;
10811;SDS011;5458;51.496;7.334;2023-04-12T11:21:03;1.27;;;1.27;;
10811;SDS011;5458;51.496;7.334;2023-04-12T11:23:30;1.40;;;1.30;;
10811;SDS011;5458;51.496;7.334;2023-04-12T11:25:56;1.48;;;1.38;;
10811;SDS011;5458;51.496;7.334;2023-04-12T11:28:23;1.50;;;1.40;;
10811;SDS011;5458;51.496;7.334;2023-04-12T11:30:53;1.75;;;1.65;;
10811;SDS011;5458;51.496;7.334;2023-04-12T11:36:07;1.90;;;1.80;;
10811;SDS011;5458;51.496;7.334;2023-04-12T11:38:36;1.98;;;1.88;;
10811;SDS011;5458;51.496;7.334;2023-04-12T11:41:02;2.08;;;1.90;;
10811;SDS011;5458;51.496;7.334;2023-04-12T11:43:28;2.33;;;1.92;;
10811;SDS011;5458;51.496;7.334;2023-04-12T11:45:55;2.30;;;2.10;;
10811;SDS011;5458;51.496;7.334;2023-04-12T11:48:22;2.63;;;2.42;;
10811;SDS011;5458;51.496;7.334;2023-04-12T11:50:49;2.50;;;2.30;;
10811;SDS011;5458;51.496;7.334;2023-04-12T11:53:14;2.63;;;2.42;;
10811;SDS011;5458;51.496;7.334;2023-04-12T11:55:46;2.30;;;2.20;;
10811;SDS011;5458;51.496;7.334;2023-04-12T11:58:16;2.38;;;2.22;;
10811;SDS011;5458;51.496;7.334;2023-04-12T12:00:42;3.63;;;2.72;;
10811;SDS011;5458;51.496;7.334;2023-04-12T12:03:09;2.70;;;2.38;;
10811;SDS011;5458;51.496;7.334;2023-04-12T12:05:36;3.38;;;2.40;;
10811;SDS011;5458;51.496;7.334;2023-04-12T12:08:03;2.67;;;2.33;;
10811;SDS011;5458;51.496;7.334;2023-04-12T12:10:32;2.83;;;2.55;;
10811;SDS011;5458;51.496;7.334;2023-04-12T12:12:59;2.50;;;2.20;;
10811;SDS011;5458;51.496;7.334;2023-04-12T12:15:28;3.20;;;3.00;;
10811;SDS011;5458;51.496;7.334;2023-04-12T12:24:15;2.88;;;2.00;;
10811;SDS011;5458;51.496;7.334;2023-04-12T12:26:41;2.70;;;1.60;;
10811;SDS011;5458;51.496;7.334;2023-04-12T12:29:15;1.75;;;1.65;;
10811;SDS011;5458;51.496;7.334;2023-04-12T12:31:45;3.20;;;1.63;;
10811;SDS011;5458;51.496;7.334;2023-04-12T12:34:12;1.98;;;1.63;;
10811;SDS011;5458;51.496;7.334;2023-04-12T12:36:38;1.85;;;1.60;;
10811;SDS011;5458;51.496;7.334;2023-04-12T12:39:10;1.70;;;1.58;;
10811;SDS011;5458;51.496;7.334;2023-04-12T12:41:36;4.43;;;1.85;;
10811;SDS011;5458;51.496;7.334;2023-04-12T12:44:03;3.90;;;1.77;;
10811;SDS011;5458;51.496;7.334;2023-04-12T12:46:29;3.10;;;1.40;;
10811;SDS011;5458;51.496;7.334;2023-04-12T12:48:54;2.60;;;1.50;;
10811;SDS011;5458;51.496;7.334;2023-04-12T12:51:20;4.68;;;1.70;;
10811;SDS011;5458;51.496;7.334;2023-04-12T12:53:46;2.72;;;1.88;;
10811;SDS011;5458;51.496;7.334;2023-04-12T12:56:12;3.00;;;1.70;;
10811;SDS011;5458;51.496;7.334;2023-04-12T12:58:39;3.13;;;1.73;;
10811;SDS011;5458;51.496;7.334;2023-04-12T13:01:06;2.90;;;1.92;;
10811;SDS011;5458;51.496;7.334;2023-04-12T13:03:32;5.35;;;2.50;;
10811;SDS011;5458;51.496;7.334;2023-04-12T13:05:58;3.65;;;2.10;;
10811;SDS011;5458;51.496;7.334;2023-04-12T13:08:24;4.65;;;2.10;;
10811;SDS011;5458;51.496;7.334;2023-04-12T13:10:50;3.83;;;2.42;;
10811;SDS011;5458;51.496;7.334;2023-04-12T13:13:16;5.35;;;2.35;;
10811;SDS011;5458;51.496;7.334;2023-04-12T13:15:42;4.55;;;2.30;;
10811;SDS011;5458;51.496;7.334;2023-04-12T13:18:10;4.60;;;1.83;;
10811;SDS011;5458;51.496;7.334;2023-04-12T13:20:39;5.15;;;2.22;;
10811;SDS011;5458;51.496;7.334;2023-04-12T13:23:05;3.97;;;2.05;;
10811;SDS011;5458;51.496;7.334;2023-04-12T13:25:30;6.10;;;2.30;;
10811;SDS011;5458;51.496;7.334;2023-04-12T13:27:56;8.27;;;2.17;;
10811;SDS011;5458;51.496;7.334;2023-04-12T13:30:22;3.13;;;1.75;;
10811;SDS011;5458;51.496;7.334;2023-04-12T13:32:48;6.18;;;1.90;;
10811;SDS011;5458;51.496;7.334;2023-04-12T13:35:13;4.45;;;1.85;;
10811;SDS011;5458;51.496;7.334;2023-04-12T13:37:39;6.18;;;1.63;;
10811;SDS011;5458;51.496;7.334;2023-04-12T13:40:05;6.18;;;2.47;;
10811;SDS011;5458;51.496;7.334;2023-04-12T13:42:32;7.35;;;2.35;;
10811;SDS011;5458;51.496;7.334;2023-04-12T13:44:58;4.45;;;1.88;;
10811;SDS011;5458;51.496;7.334;2023-04-12T13:47:23;4.35;;;1.90;;
10811;SDS011;5458;51.496;7.334;2023-04-12T13:49:50;6.20;;;2.47;;
10811;SDS011;5458;51.496;7.334;2023-04-12T13:52:15;4.25;;;2.25;;
10811;SDS011;5458;51.496;7.334;2023-04-12T13:54:41;5.03;;;1.80;;
10811;SDS011;5458;51.496;7.334;2023-04-12T13:57:07;4.07;;;2.20;;
10811;SDS011;5458;51.496;7.334;2023-04-12T13:59:33;3.33;;;1.90;;
10811;SDS011;5458;51.496;7.334;2023-04-12T14:01:59;4.75;;;2.38;;
10811;SDS011;5458;51.496;7.334;2023-04-12T14:04:28;6.25;;;2.33;;
10811;SDS011;5458;51.496;7.334;2023-04-12T14:06:55;5.88;;;2.70;;
10811;SDS011;5458;51.496;7.334;2023-04-12T14:09:25;6.32;;;3.35;;
10811;SDS011;5458;51.496;7.334;2023-04-12T14:11:55;4.38;;;2.65;;
10811;SDS011;5458;51.496;7.334;2023-04-12T14:14:23;8.68;;;2.80;;
10811;SDS011;5458;51.496;7.334;2023-04-12T14:16:49;7.47;;;2.83;;
10811;SDS011;5458;51.496;7.334;2023-04-12T14:19:19;6.57;;;2.42;;
10811;SDS011;5458;51.496;7.334;2023-04-12T14:21:46;7.65;;;2.28;;
10811;SDS011;5458;51.496;7.334;2023-04-12T14:24:12;4.82;;;2.30;;
10811;SDS011;5458;51.496;7.334;2023-04-12T14:26:38;8.05;;;2.70;;
10811;SDS011;5458;51.496;7.334;2023-04-12T14:29:04;4.72;;;1.95;;
10811;SDS011;5458;51.496;7.334;2023-04-12T14:31:31;3.88;;;1.85;;
10811;SDS011;5458;51.496;7.334;2023-04-12T14:33:57;7.90;;;3.63;;
10811;SDS011;5458;51.496;7.334;2023-04-12T14:36:22;8.88;;;3.15;;
10811;SDS011;5458;51.496;7.334;2023-04-12T14:38:48;4.60;;;2.90;;
10811;SDS011;5458;51.496;7.334;2023-04-12T14:41:14;7.20;;;4.50;;
10811;SDS011;5458;51.496;7.334;2023-04-12T14:43:39;6.05;;;3.45;;
10811;SDS011;5458;51.496;7.334;2023-04-12T14:46:05;3.50;;;3.00;;
10811;SDS011;5458;51.496;7.334;2023-04-12T14:48:31;7.53;;;3.42;;
10811;SDS011;5458;51.496;7.334;2023-04-12T14:50:56;7.63;;;3.30;;
10811;SDS011;5458;51.496;7.334;2023-04-12T14:53:22;5.05;;;3.38;;
10811;SDS011;5458;51.496;7.334;2023-04-12T14:55:48;8.07;;;3.55;;
10811;SDS011;5458;51.496;7.334;2023-04-12T14:58:13;10.25;;;4.30;;
10811;SDS011;5458;51.496;7.334;2023-04-12T15:00:39;7.00;;;3.67;;
10811;SDS011;5458;51.496;7.334;2023-04-12T15:03:05;6.43;;;3.35;;
10811;SDS011;5458;51.496;7.334;2023-04-12T15:05:31;10.35;;;3.78;;
10811;SDS011;5458;51.496;7.334;2023-04-12T15:07:57;7.15;;;3.25;;
10811;SDS011;5458;51.496;7.334;2023-04-12T15:10:23;7.00;;;3.38;;
10811;SDS011;5458;51.496;7.334;2023-04-12T15:12:49;11.05;;;4.32;;
10811;SDS011;5458;51.496;7.334;2023-04-12T15:15:15;10.88;;;3.63;;
10811;SDS011;5458;51.496;7.334;2023-04-12T15:17:40;10.13;;;4.47;;
10811;SDS011;5458;51.496;7.334;2023-04-12T15:20:06;8.07;;;3.58;;
10811;SDS011;5458;51.496;7.334;2023-04-12T15:22:36;8.07;;;4.00;;
10811;SDS011;5458;51.496;7.334;2023-04-12T15:25:05;6.10;;;3.47;;
10811;SDS011;5458;51.496;7.334;2023-04-12T15:27:31;8.00;;;4.18;;
10811;SDS011;5458;51.496;7.334;2023-04-12T15:29:57;5.85;;;3.40;;
10811;SDS011;5458;51.496;7.334;2023-04-12T15:32:23;6.43;;;3.50;;
10811;SDS011;5458;51.496;7.334;2023-04-12T15:34:52;9.73;;;3.97;;
10811;SDS011;5458;51.496;7.334;2023-04-12T15:37:20;7.32;;;3.58;;
10811;SDS011;5458;51.496;7.334;2023-04-12T15:39:46;7.93;;;3.55;;